Terminal Aerodrome Forecast
Issued by NWS

Home | Current Version | Previous Version | Text Only | Print | Product List | Glossary On
Versions: 1 2 3 4 5 6 7 8 9 10 11 12 13 14 15 16 17 18 19 20
000
FTUS43 KLSX 070500
TAFUIN
TAF
KUIN 070530Z 0706/0806 23008KT P6SM VCTS BKN040CB OVC250
     FM071200 29006KT P6SM SCT040 BKN120
     FM072200 VRB05KT P6SM VCTS SCT040CB BKN250=

USA.gov is the U.S. government's official web portal to all federal, state and local government web resources and services.